Other Surface Observations
Issued by NWS Great Falls, MT

Home | Current Version | Previous Version | Text Only | Print | Product List | Glossary On
Versions: 1 2 3 4 5 6 7 8 9 10 11 12 13 14 15 16 17 18 19 20 21 22 23 24 25 26 27 28 29 30 31 32 33 34 35 36 37 38 39 40 41 42 43 44 45 46 47 48 49 50
000
SXUS55 KTFX 311137
OSOTFX
AREA AWOS OBSERVATIONS
NATIONAL WEATHER SERVICE GREAT FALLS MT
0535 AM MDT FRI JUL 31 2015

METAR KPWD 311130Z AUTO 01006KT 10SM 13/09 A3017 RMK PLENTYWOOD
METAR KPO1 311130Z AUTO 00000KT 10SM 11/11 A3017 RMK POPLAR
METAR K1S3 311130Z AUTO 07004KT 10SM 16/08 A3018 RMK FORSYTH
METAR KS71 311130Z AUTO 09006KT 10SM 14/11 A3013 RMK CHINOOK
METAR K38S 311130Z AUTO 27003KT 10SM 08/04 A3035 RMK DEER LODGE
METAR K3U3 311130Z AUTO 17006KT 12/02 A3031 RMK ANACONDA
METAR K6S5 311130Z AUTO 17007KT 10SM 15/04 A3024 RMK HAMILTON
METAR KS59 311130Z AUTO 15003KT 10SM 09/03 A3019 RMK LIBBY
METAR K88M 311130Z AUTO 00000KT 10SM 09/03 A3019 RMK EUREKA



USA.gov is the U.S. government's official web portal to all federal, state and local government web resources and services.